sensor_id;sensor_type;location;lat;lon;timestamp;P1;durP1;ratioP1;P2;durP2;ratioP2
4355;SDS011;64374;51.482;7.408;2023-04-30T00:01:02;11.13;;;6.43;;
4355;SDS011;64374;51.482;7.408;2023-04-30T00:03:33;7.97;;;5.63;;
4355;SDS011;64374;51.482;7.408;2023-04-30T00:06:02;8.87;;;5.93;;
4355;SDS011;64374;51.482;7.408;2023-04-30T00:08:30;7.20;;;5.97;;
4355;SDS011;64374;51.482;7.408;2023-04-30T00:11:00;9.27;;;6.33;;
4355;SDS011;64374;51.482;7.408;2023-04-30T00:13:29;11.07;;;6.53;;
4355;SDS011;64374;51.482;7.408;2023-04-30T00:16:01;8.83;;;5.40;;
4355;SDS011;64374;51.482;7.408;2023-04-30T00:18:29;12.73;;;6.63;;
4355;SDS011;64374;51.482;7.408;2023-04-30T00:20:59;10.73;;;7.10;;
4355;SDS011;64374;51.482;7.408;2023-04-30T00:23:30;9.33;;;6.00;;
4355;SDS011;64374;51.482;7.408;2023-04-30T00:26:04;11.63;;;6.83;;
4355;SDS011;64374;51.482;7.408;2023-04-30T00:28:33;7.13;;;5.77;;
4355;SDS011;64374;51.482;7.408;2023-04-30T00:31:10;11.67;;;7.17;;
4355;SDS011;64374;51.482;7.408;2023-04-30T00:33:42;8.17;;;6.40;;
4355;SDS011;64374;51.482;7.408;2023-04-30T00:36:14;10.57;;;7.37;;
4355;SDS011;64374;51.482;7.408;2023-04-30T00:38:45;8.30;;;5.90;;
4355;SDS011;64374;51.482;7.408;2023-04-30T00:41:13;7.30;;;5.60;;
4355;SDS011;64374;51.482;7.408;2023-04-30T00:43:45;8.00;;;5.93;;
4355;SDS011;64374;51.482;7.408;2023-04-30T00:46:16;10.10;;;5.97;;
4355;SDS011;64374;51.482;7.408;2023-04-30T00:48:45;10.17;;;6.17;;
4355;SDS011;64374;51.482;7.408;2023-04-30T00:51:16;11.23;;;6.50;;
4355;SDS011;64374;51.482;7.408;2023-04-30T00:53:45;9.27;;;7.70;;
4355;SDS011;64374;51.482;7.408;2023-04-30T00:56:13;8.50;;;5.77;;
4355;SDS011;64374;51.482;7.408;2023-04-30T00:58:45;10.60;;;6.73;;
4355;SDS011;64374;51.482;7.408;2023-04-30T01:01:16;10.40;;;7.00;;
4355;SDS011;64374;51.482;7.408;2023-04-30T01:03:45;13.13;;;7.27;;
4355;SDS011;64374;51.482;7.408;2023-04-30T01:06:15;8.67;;;7.53;;
4355;SDS011;64374;51.482;7.408;2023-04-30T01:08:44;12.17;;;6.87;;
4355;SDS011;64374;51.482;7.408;2023-04-30T01:11:16;10.40;;;7.50;;
4355;SDS011;64374;51.482;7.408;2023-04-30T01:13:54;8.70;;;7.40;;
4355;SDS011;64374;51.482;7.408;2023-04-30T01:16:35;8.50;;;6.87;;
4355;SDS011;64374;51.482;7.408;2023-04-30T01:19:15;11.67;;;6.70;;
4355;SDS011;64374;51.482;7.408;2023-04-30T01:21:56;9.87;;;7.00;;
4355;SDS011;64374;51.482;7.408;2023-04-30T01:24:40;11.50;;;7.47;;
4355;SDS011;64374;51.482;7.408;2023-04-30T01:27:22;10.07;;;6.83;;
4355;SDS011;64374;51.482;7.408;2023-04-30T01:29:58;6.87;;;6.10;;
4355;SDS011;64374;51.482;7.408;2023-04-30T01:32:30;10.13;;;6.57;;
4355;SDS011;64374;51.482;7.408;2023-04-30T01:35:01;14.60;;;7.77;;
4355;SDS011;64374;51.482;7.408;2023-04-30T01:37:31;16.33;;;8.20;;
4355;SDS011;64374;51.482;7.408;2023-04-30T01:40:12;8.63;;;6.83;;
4355;SDS011;64374;51.482;7.408;2023-04-30T01:42:51;17.90;;;8.53;;
4355;SDS011;64374;51.482;7.408;2023-04-30T01:45:48;9.83;;;7.23;;
4355;SDS011;64374;51.482;7.408;2023-04-30T01:48:27;10.27;;;6.97;;
4355;SDS011;64374;51.482;7.408;2023-04-30T01:51:04;13.73;;;7.87;;
4355;SDS011;64374;51.482;7.408;2023-04-30T01:53:37;10.07;;;7.73;;
4355;SDS011;64374;51.482;7.408;2023-04-30T01:56:11;8.30;;;6.37;;
4355;SDS011;64374;51.482;7.408;2023-04-30T01:58:45;11.53;;;6.60;;
4355;SDS011;64374;51.482;7.408;2023-04-30T02:01:27;9.83;;;6.33;;
4355;SDS011;64374;51.482;7.408;2023-04-30T02:03:59;12.50;;;7.53;;
4355;SDS011;64374;51.482;7.408;2023-04-30T02:06:31;7.63;;;6.50;;
4355;SDS011;64374;51.482;7.408;2023-04-30T02:08:59;8.13;;;6.57;;
4355;SDS011;64374;51.482;7.408;2023-04-30T02:11:31;10.00;;;6.60;;
4355;SDS011;64374;51.482;7.408;2023-04-30T02:14:00;13.90;;;6.83;;
4355;SDS011;64374;51.482;7.408;2023-04-30T02:16:29;11.63;;;7.40;;
4355;SDS011;64374;51.482;7.408;2023-04-30T02:18:58;9.83;;;6.60;;
4355;SDS011;64374;51.482;7.408;2023-04-30T02:21:26;9.23;;;7.87;;
4355;SDS011;64374;51.482;7.408;2023-04-30T02:23:57;10.53;;;7.63;;
4355;SDS011;64374;51.482;7.408;2023-04-30T02:26:28;13.90;;;7.83;;
4355;SDS011;64374;51.482;7.408;2023-04-30T02:28:59;11.40;;;8.40;;
4355;SDS011;64374;51.482;7.408;2023-04-30T02:31:30;15.00;;;7.10;;
4355;SDS011;64374;51.482;7.408;2023-04-30T02:34:01;12.30;;;9.03;;
4355;SDS011;64374;51.482;7.408;2023-04-30T02:36:32;13.47;;;8.83;;
4355;SDS011;64374;51.482;7.408;2023-04-30T02:39:02;9.33;;;7.60;;
4355;SDS011;64374;51.482;7.408;2023-04-30T02:44:23;15.30;;;10.27;;
4355;SDS011;64374;51.482;7.408;2023-04-30T02:46:53;16.63;;;10.43;;
4355;SDS011;64374;51.482;7.408;2023-04-30T02:49:22;14.20;;;10.33;;
4355;SDS011;64374;51.482;7.408;2023-04-30T02:51:50;14.53;;;10.13;;
4355;SDS011;64374;51.482;7.408;2023-04-30T02:54:19;10.60;;;8.60;;
4355;SDS011;64374;51.482;7.408;2023-04-30T02:56:47;14.93;;;10.30;;
4355;SDS011;64374;51.482;7.408;2023-04-30T02:59:15;12.87;;;8.73;;
4355;SDS011;64374;51.482;7.408;2023-04-30T03:01:44;16.53;;;10.50;;
4355;SDS011;64374;51.482;7.408;2023-04-30T03:04:14;13.83;;;10.57;;
4355;SDS011;64374;51.482;7.408;2023-04-30T03:06:42;12.30;;;8.33;;
4355;SDS011;64374;51.482;7.408;2023-04-30T03:09:13;13.63;;;9.80;;
4355;SDS011;64374;51.482;7.408;2023-04-30T03:11:45;15.43;;;11.40;;
4355;SDS011;64374;51.482;7.408;2023-04-30T03:14:13;16.87;;;11.03;;
4355;SDS011;64374;51.482;7.408;2023-04-30T03:16:42;15.73;;;9.53;;
4355;SDS011;64374;51.482;7.408;2023-04-30T03:19:10;14.53;;;9.90;;
4355;SDS011;64374;51.482;7.408;2023-04-30T03:21:40;13.07;;;9.93;;
4355;SDS011;64374;51.482;7.408;2023-04-30T03:24:16;12.90;;;8.53;;
4355;SDS011;64374;51.482;7.408;2023-04-30T03:26:44;12.17;;;9.33;;
4355;SDS011;64374;51.482;7.408;2023-04-30T03:29:13;11.50;;;8.73;;
4355;SDS011;64374;51.482;7.408;2023-04-30T03:31:42;14.20;;;9.40;;
4355;SDS011;64374;51.482;7.408;2023-04-30T03:34:21;8.20;;;7.00;;
4355;SDS011;64374;51.482;7.408;2023-04-30T03:36:54;13.97;;;9.90;;
4355;SDS011;64374;51.482;7.408;2023-04-30T03:39:23;13.97;;;8.80;;
4355;SDS011;64374;51.482;7.408;2023-04-30T03:41:53;13.53;;;8.90;;
4355;SDS011;64374;51.482;7.408;2023-04-30T03:44:21;15.17;;;9.70;;
4355;SDS011;64374;51.482;7.408;2023-04-30T03:46:57;10.00;;;7.60;;
4355;SDS011;64374;51.482;7.408;2023-04-30T03:49:26;12.60;;;9.63;;
4355;SDS011;64374;51.482;7.408;2023-04-30T03:51:57;13.83;;;9.87;;
4355;SDS011;64374;51.482;7.408;2023-04-30T03:54:34;15.00;;;10.47;;
4355;SDS011;64374;51.482;7.408;2023-04-30T03:57:05;14.53;;;10.10;;
4355;SDS011;64374;51.482;7.408;2023-04-30T03:59:37;10.23;;;9.13;;
4355;SDS011;64374;51.482;7.408;2023-04-30T04:02:11;14.57;;;10.37;;
4355;SDS011;64374;51.482;7.408;2023-04-30T04:04:41;10.80;;;8.20;;
4355;SDS011;64374;51.482;7.408;2023-04-30T04:07:15;17.93;;;10.37;;
4355;SDS011;64374;51.482;7.408;2023-04-30T04:09:44;11.80;;;9.20;;
4355;SDS011;64374;51.482;7.408;2023-04-30T04:12:15;13.40;;;9.10;;
4355;SDS011;64374;51.482;7.408;2023-04-30T04:14:46;10.67;;;9.30;;
4355;SDS011;64374;51.482;7.408;2023-04-30T04:17:14;11.50;;;8.37;;
4355;SDS011;64374;51.482;7.408;2023-04-30T04:19:45;15.57;;;11.00;;
4355;SDS011;64374;51.482;7.408;2023-04-30T04:22:18;10.10;;;8.60;;
4355;SDS011;64374;51.482;7.408;2023-04-30T04:24:51;12.00;;;9.00;;
4355;SDS011;64374;51.482;7.408;2023-04-30T04:27:24;12.63;;;10.10;;
4355;SDS011;64374;51.482;7.408;2023-04-30T04:29:54;11.80;;;9.40;;
4355;SDS011;64374;51.482;7.408;2023-04-30T04:32:24;18.97;;;10.03;;
4355;SDS011;64374;51.482;7.408;2023-04-30T04:34:53;12.27;;;8.77;;
4355;SDS011;64374;51.482;7.408;2023-04-30T04:37:24;15.57;;;9.23;;
4355;SDS011;64374;51.482;7.408;2023-04-30T04:39:53;12.17;;;9.47;;
4355;SDS011;64374;51.482;7.408;2023-04-30T04:42:22;10.93;;;9.63;;
4355;SDS011;64374;51.482;7.408;2023-04-30T04:44:58;13.17;;;9.90;;
4355;SDS011;64374;51.482;7.408;2023-04-30T04:47:30;12.77;;;9.27;;
4355;SDS011;64374;51.482;7.408;2023-04-30T04:49:59;12.43;;;10.20;;
4355;SDS011;64374;51.482;7.408;2023-04-30T04:52:29;13.40;;;9.60;;
4355;SDS011;64374;51.482;7.408;2023-04-30T04:54:58;12.33;;;9.87;;
4355;SDS011;64374;51.482;7.408;2023-04-30T04:57:29;13.90;;;10.10;;
4355;SDS011;64374;51.482;7.408;2023-04-30T04:59:57;12.17;;;9.87;;
4355;SDS011;64374;51.482;7.408;2023-04-30T05:02:25;13.60;;;11.00;;
4355;SDS011;64374;51.482;7.408;2023-04-30T05:04:54;16.50;;;11.43;;
4355;SDS011;64374;51.482;7.408;2023-04-30T05:07:22;12.73;;;10.80;;
4355;SDS011;64374;51.482;7.408;2023-04-30T05:09:57;13.27;;;10.23;;
4355;SDS011;64374;51.482;7.408;2023-04-30T05:12:25;12.73;;;10.33;;
4355;SDS011;64374;51.482;7.408;2023-04-30T05:14:54;11.60;;;9.70;;
4355;SDS011;64374;51.482;7.408;2023-04-30T05:17:22;18.10;;;11.33;;
4355;SDS011;64374;51.482;7.408;2023-04-30T05:19:50;18.10;;;10.73;;
4355;SDS011;64374;51.482;7.408;2023-04-30T05:22:21;14.47;;;10.40;;
4355;SDS011;64374;51.482;7.408;2023-04-30T05:24:51;14.57;;;11.00;;
4355;SDS011;64374;51.482;7.408;2023-04-30T05:27:20;13.43;;;10.90;;
4355;SDS011;64374;51.482;7.408;2023-04-30T05:29:52;13.70;;;10.73;;
4355;SDS011;64374;51.482;7.408;2023-04-30T05:32:21;15.10;;;11.93;;
4355;SDS011;64374;51.482;7.408;2023-04-30T05:34:52;12.03;;;8.80;;
4355;SDS011;64374;51.482;7.408;2023-04-30T05:37:20;15.60;;;10.23;;
4355;SDS011;64374;51.482;7.408;2023-04-30T05:39:54;11.90;;;9.07;;
4355;SDS011;64374;51.482;7.408;2023-04-30T05:42:23;12.73;;;9.43;;
4355;SDS011;64374;51.482;7.408;2023-04-30T05:44:54;15.47;;;10.33;;
4355;SDS011;64374;51.482;7.408;2023-04-30T05:47:24;16.00;;;10.23;;
4355;SDS011;64374;51.482;7.408;2023-04-30T05:49:53;14.60;;;9.20;;
4355;SDS011;64374;51.482;7.408;2023-04-30T05:52:25;22.63;;;10.13;;
4355;SDS011;64374;51.482;7.408;2023-04-30T05:54:53;16.43;;;9.10;;
4355;SDS011;64374;51.482;7.408;2023-04-30T05:57:21;11.13;;;9.23;;
4355;SDS011;64374;51.482;7.408;2023-04-30T05:59:51;12.90;;;10.03;;
4355;SDS011;64374;51.482;7.408;2023-04-30T06:02:20;11.23;;;9.67;;
4355;SDS011;64374;51.482;7.408;2023-04-30T06:04:51;9.97;;;7.80;;
4355;SDS011;64374;51.482;7.408;2023-04-30T06:07:22;11.93;;;8.70;;
4355;SDS011;64374;51.482;7.408;2023-04-30T06:09:52;13.80;;;10.23;;
4355;SDS011;64374;51.482;7.408;2023-04-30T06:12:20;11.70;;;8.97;;
4355;SDS011;64374;51.482;7.408;2023-04-30T06:14:50;15.03;;;10.00;;
4355;SDS011;64374;51.482;7.408;2023-04-30T06:17:19;13.50;;;9.93;;
4355;SDS011;64374;51.482;7.408;2023-04-30T06:19:47;14.60;;;10.87;;
4355;SDS011;64374;51.482;7.408;2023-04-30T06:22:16;14.03;;;10.10;;
4355;SDS011;64374;51.482;7.408;2023-04-30T06:24:44;10.80;;;7.70;;
4355;SDS011;64374;51.482;7.408;2023-04-30T06:27:13;14.07;;;9.70;;
4355;SDS011;64374;51.482;7.408;2023-04-30T06:29:41;12.13;;;9.00;;
4355;SDS011;64374;51.482;7.408;2023-04-30T06:32:13;12.10;;;9.40;;
4355;SDS011;64374;51.482;7.408;2023-04-30T06:34:42;8.33;;;7.30;;
4355;SDS011;64374;51.482;7.408;2023-04-30T06:37:13;15.20;;;9.77;;
4355;SDS011;64374;51.482;7.408;2023-04-30T06:39:41;13.33;;;8.80;;
4355;SDS011;64374;51.482;7.408;2023-04-30T06:42:10;13.97;;;9.67;;
4355;SDS011;64374;51.482;7.408;2023-04-30T06:44:39;10.50;;;8.77;;
4355;SDS011;64374;51.482;7.408;2023-04-30T06:47:07;14.70;;;10.50;;
4355;SDS011;64374;51.482;7.408;2023-04-30T06:49:37;21.67;;;10.47;;
4355;SDS011;64374;51.482;7.408;2023-04-30T06:52:08;14.00;;;9.20;;
4355;SDS011;64374;51.482;7.408;2023-04-30T06:54:36;10.13;;;7.80;;
4355;SDS011;64374;51.482;7.408;2023-04-30T06:57:07;14.30;;;8.30;;
4355;SDS011;64374;51.482;7.408;2023-04-30T06:59:35;16.97;;;9.43;;
4355;SDS011;64374;51.482;7.408;2023-04-30T07:02:04;15.20;;;10.33;;
4355;SDS011;64374;51.482;7.408;2023-04-30T07:04:33;17.23;;;9.30;;
4355;SDS011;64374;51.482;7.408;2023-04-30T07:07:02;14.93;;;8.83;;
4355;SDS011;64374;51.482;7.408;2023-04-30T07:09:30;13.57;;;9.50;;
4355;SDS011;64374;51.482;7.408;2023-04-30T07:11:59;13.37;;;8.80;;
4355;SDS011;64374;51.482;7.408;2023-04-30T07:14:27;12.07;;;9.93;;
4355;SDS011;64374;51.482;7.408;2023-04-30T07:17:03;12.50;;;9.83;;
4355;SDS011;64374;51.482;7.408;2023-04-30T07:19:31;17.03;;;10.97;;
4355;SDS011;64374;51.482;7.408;2023-04-30T07:21:59;13.80;;;9.80;;
4355;SDS011;64374;51.482;7.408;2023-04-30T07:24:30;13.87;;;9.47;;
4355;SDS011;64374;51.482;7.408;2023-04-30T07:27:08;12.67;;;8.83;;
4355;SDS011;64374;51.482;7.408;2023-04-30T07:29:41;12.77;;;9.00;;
4355;SDS011;64374;51.482;7.408;2023-04-30T07:32:12;10.93;;;8.53;;
4355;SDS011;64374;51.482;7.408;2023-04-30T07:34:44;14.60;;;8.87;;
4355;SDS011;64374;51.482;7.408;2023-04-30T07:37:12;11.90;;;7.80;;
4355;SDS011;64374;51.482;7.408;2023-04-30T07:39:44;11.50;;;8.80;;
4355;SDS011;64374;51.482;7.408;2023-04-30T07:42:12;15.33;;;8.87;;
4355;SDS011;64374;51.482;7.408;2023-04-30T07:44:41;14.67;;;8.43;;
4355;SDS011;64374;51.482;7.408;2023-04-30T07:47:09;11.60;;;8.20;;
4355;SDS011;64374;51.482;7.408;2023-04-30T07:49:39;10.30;;;9.20;;
4355;SDS011;64374;51.482;7.408;2023-04-30T07:52:07;12.20;;;9.20;;
4355;SDS011;64374;51.482;7.408;2023-04-30T07:54:36;15.83;;;9.93;;
4355;SDS011;64374;51.482;7.408;2023-04-30T07:57:07;13.23;;;9.50;;
4355;SDS011;64374;51.482;7.408;2023-04-30T07:59:35;12.40;;;9.00;;
4355;SDS011;64374;51.482;7.408;2023-04-30T08:02:07;18.80;;;11.97;;
4355;SDS011;64374;51.482;7.408;2023-04-30T08:04:36;28.10;;;16.53;;
4355;SDS011;64374;51.482;7.408;2023-04-30T08:07:04;22.30;;;12.93;;
4355;SDS011;64374;51.482;7.408;2023-04-30T08:09:36;21.50;;;11.20;;
4355;SDS011;64374;51.482;7.408;2023-04-30T08:12:04;14.17;;;10.67;;
4355;SDS011;64374;51.482;7.408;2023-04-30T08:14:34;18.70;;;9.90;;
4355;SDS011;64374;51.482;7.408;2023-04-30T08:17:05;13.03;;;8.60;;
4355;SDS011;64374;51.482;7.408;2023-04-30T08:19:34;14.03;;;8.07;;
4355;SDS011;64374;51.482;7.408;2023-04-30T08:22:02;11.57;;;7.80;;
4355;SDS011;64374;51.482;7.408;2023-04-30T08:24:30;12.40;;;7.60;;
4355;SDS011;64374;51.482;7.408;2023-04-30T08:27:00;10.43;;;7.00;;
4355;SDS011;64374;51.482;7.408;2023-04-30T08:29:29;12.03;;;6.80;;
4355;SDS011;64374;51.482;7.408;2023-04-30T08:32:01;11.20;;;7.40;;
4355;SDS011;64374;51.482;7.408;2023-04-30T08:34:33;10.03;;;6.30;;
4355;SDS011;64374;51.482;7.408;2023-04-30T08:37:04;14.93;;;11.03;;
4355;SDS011;64374;51.482;7.408;2023-04-30T08:39:35;11.77;;;7.50;;
4355;SDS011;64374;51.482;7.408;2023-04-30T08:42:08;10.77;;;7.60;;
4355;SDS011;64374;51.482;7.408;2023-04-30T08:44:40;10.70;;;8.73;;
4355;SDS011;64374;51.482;7.408;2023-04-30T08:47:15;8.83;;;7.17;;
4355;SDS011;64374;51.482;7.408;2023-04-30T08:49:52;15.20;;;8.27;;
4355;SDS011;64374;51.482;7.408;2023-04-30T08:52:21;11.53;;;7.53;;
4355;SDS011;64374;51.482;7.408;2023-04-30T08:54:53;10.33;;;8.47;;
4355;SDS011;64374;51.482;7.408;2023-04-30T08:57:26;11.37;;;7.50;;
4355;SDS011;64374;51.482;7.408;2023-04-30T09:00:02;9.13;;;7.03;;
4355;SDS011;64374;51.482;7.408;2023-04-30T09:02:34;10.60;;;7.53;;
4355;SDS011;64374;51.482;7.408;2023-04-30T09:05:10;11.00;;;8.20;;
4355;SDS011;64374;51.482;7.408;2023-04-30T09:07:40;9.73;;;7.90;;
4355;SDS011;64374;51.482;7.408;2023-04-30T09:10:31;131.27;;;17.20;;
4355;SDS011;64374;51.482;7.408;2023-04-30T09:13:00;13.03;;;6.80;;
4355;SDS011;64374;51.482;7.408;2023-04-30T09:15:30;10.30;;;5.83;;
4355;SDS011;64374;51.482;7.408;2023-04-30T09:18:10;7.30;;;5.67;;
4355;SDS011;64374;51.482;7.408;2023-04-30T09:20:52;8.10;;;5.17;;
4355;SDS011;64374;51.482;7.408;2023-04-30T09:23:22;9.27;;;6.43;;
4355;SDS011;64374;51.482;7.408;2023-04-30T09:25:54;12.63;;;6.13;;
4355;SDS011;64374;51.482;7.408;2023-04-30T09:28:23;8.93;;;5.20;;
4355;SDS011;64374;51.482;7.408;2023-04-30T09:30:55;8.57;;;5.07;;
4355;SDS011;64374;51.482;7.408;2023-04-30T09:33:25;7.30;;;5.73;;
4355;SDS011;64374;51.482;7.408;2023-04-30T09:35:56;10.30;;;5.97;;
4355;SDS011;64374;51.482;7.408;2023-04-30T09:38:25;12.23;;;6.63;;
4355;SDS011;64374;51.482;7.408;2023-04-30T09:40:56;7.53;;;5.60;;
4355;SDS011;64374;51.482;7.408;2023-04-30T09:43:25;5.67;;;4.60;;
4355;SDS011;64374;51.482;7.408;2023-04-30T09:45:54;7.57;;;5.10;;
4355;SDS011;64374;51.482;7.408;2023-04-30T09:48:27;7.23;;;6.37;;
4355;SDS011;64374;51.482;7.408;2023-04-30T09:50:58;6.33;;;4.27;;
4355;SDS011;64374;51.482;7.408;2023-04-30T09:53:32;13.33;;;5.30;;
4355;SDS011;64374;51.482;7.408;2023-04-30T09:56:05;9.67;;;6.27;;
4355;SDS011;64374;51.482;7.408;2023-04-30T09:58:35;7.10;;;4.90;;
4355;SDS011;64374;51.482;7.408;2023-04-30T10:01:04;7.40;;;4.73;;
4355;SDS011;64374;51.482;7.408;2023-04-30T10:03:39;4.90;;;3.50;;
4355;SDS011;64374;51.482;7.408;2023-04-30T10:06:11;5.23;;;4.10;;
4355;SDS011;64374;51.482;7.408;2023-04-30T10:08:55;5.13;;;4.23;;
4355;SDS011;64374;51.482;7.408;2023-04-30T10:11:25;4.30;;;3.07;;
4355;SDS011;64374;51.482;7.408;2023-04-30T10:13:57;4.20;;;3.80;;
4355;SDS011;64374;51.482;7.408;2023-04-30T10:16:33;3.90;;;3.60;;
4355;SDS011;64374;51.482;7.408;2023-04-30T10:19:13;2.50;;;2.40;;
4355;SDS011;64374;51.482;7.408;2023-04-30T10:21:45;4.20;;;2.40;;
4355;SDS011;64374;51.482;7.408;2023-04-30T10:24:14;4.47;;;2.90;;
4355;SDS011;64374;51.482;7.408;2023-04-30T10:26:45;3.17;;;2.60;;
4355;SDS011;64374;51.482;7.408;2023-04-30T10:29:17;5.67;;;3.40;;
4355;SDS011;64374;51.482;7.408;2023-04-30T10:31:49;3.60;;;2.40;;
4355;SDS011;64374;51.482;7.408;2023-04-30T10:34:27;3.70;;;2.60;;
4355;SDS011;64374;51.482;7.408;2023-04-30T10:37:06;2.90;;;2.60;;
4355;SDS011;64374;51.482;7.408;2023-04-30T10:39:44;3.50;;;2.50;;
4355;SDS011;64374;51.482;7.408;2023-04-30T10:42:16;2.10;;;1.90;;
4355;SDS011;64374;51.482;7.408;2023-04-30T10:44:47;2.70;;;2.50;;
4355;SDS011;64374;51.482;7.408;2023-04-30T10:47:18;10.17;;;3.30;;
4355;SDS011;64374;51.482;7.408;2023-04-30T10:50:02;5.33;;;3.77;;
4355;SDS011;64374;51.482;7.408;2023-04-30T10:52:31;5.07;;;2.57;;
4355;SDS011;64374;51.482;7.408;2023-04-30T10:55:05;3.60;;;3.30;;
4355;SDS011;64374;51.482;7.408;2023-04-30T10:57:39;3.80;;;3.47;;
4355;SDS011;64374;51.482;7.408;2023-04-30T11:00:18;3.13;;;2.83;;
4355;SDS011;64374;51.482;7.408;2023-04-30T11:02:55;3.67;;;3.20;;
4355;SDS011;64374;51.482;7.408;2023-04-30T11:05:35;3.90;;;3.57;;
4355;SDS011;64374;51.482;7.408;2023-04-30T11:08:04;3.70;;;3.30;;
4355;SDS011;64374;51.482;7.408;2023-04-30T11:10:42;5.40;;;3.80;;
4355;SDS011;64374;51.482;7.408;2023-04-30T11:13:28;4.90;;;4.10;;
4355;SDS011;64374;51.482;7.408;2023-04-30T11:16:05;6.13;;;4.37;;
4355;SDS011;64374;51.482;7.408;2023-04-30T11:18:33;4.03;;;3.67;;
4355;SDS011;64374;51.482;7.408;2023-04-30T11:21:09;5.80;;;3.87;;
4355;SDS011;64374;51.482;7.408;2023-04-30T11:23:39;3.80;;;3.20;;
4355;SDS011;64374;51.482;7.408;2023-04-30T11:26:10;8.33;;;3.40;;
4355;SDS011;64374;51.482;7.408;2023-04-30T11:28:38;3.80;;;2.60;;
4355;SDS011;64374;51.482;7.408;2023-04-30T11:31:18;4.20;;;2.10;;
4355;SDS011;64374;51.482;7.408;2023-04-30T11:33:49;4.13;;;2.97;;
4355;SDS011;64374;51.482;7.408;2023-04-30T11:36:22;3.97;;;3.57;;
4355;SDS011;64374;51.482;7.408;2023-04-30T11:38:52;4.17;;;3.87;;
4355;SDS011;64374;51.482;7.408;2023-04-30T11:41:26;3.40;;;3.10;;
4355;SDS011;64374;51.482;7.408;2023-04-30T11:43:55;3.67;;;3.37;;
4355;SDS011;64374;51.482;7.408;2023-04-30T11:46:23;7.40;;;2.83;;
4355;SDS011;64374;51.482;7.408;2023-04-30T11:48:51;3.07;;;2.30;;
4355;SDS011;64374;51.482;7.408;2023-04-30T11:51:26;3.17;;;2.37;;
4355;SDS011;64374;51.482;7.408;2023-04-30T11:53:57;2.23;;;2.03;;
4355;SDS011;64374;51.482;7.408;2023-04-30T11:56:30;4.07;;;2.43;;
4355;SDS011;64374;51.482;7.408;2023-04-30T11:58:59;2.23;;;2.03;;
4355;SDS011;64374;51.482;7.408;2023-04-30T12:01:30;3.00;;;2.30;;
4355;SDS011;64374;51.482;7.408;2023-04-30T12:03:59;3.67;;;2.90;;
4355;SDS011;64374;51.482;7.408;2023-04-30T12:06:33;5.30;;;2.83;;
4355;SDS011;64374;51.482;7.408;2023-04-30T12:09:06;3.40;;;2.77;;
4355;SDS011;64374;51.482;7.408;2023-04-30T12:11:37;3.77;;;2.77;;
4355;SDS011;64374;51.482;7.408;2023-04-30T12:14:06;3.00;;;2.63;;
4355;SDS011;64374;51.482;7.408;2023-04-30T12:16:40;3.07;;;2.80;;
4355;SDS011;64374;51.482;7.408;2023-04-30T12:19:11;5.97;;;3.13;;
4355;SDS011;64374;51.482;7.408;2023-04-30T12:21:41;5.50;;;3.10;;
4355;SDS011;64374;51.482;7.408;2023-04-30T12:24:12;6.57;;;3.03;;
4355;SDS011;64374;51.482;7.408;2023-04-30T12:26:44;5.57;;;3.53;;
4355;SDS011;64374;51.482;7.408;2023-04-30T12:29:16;3.00;;;2.70;;
4355;SDS011;64374;51.482;7.408;2023-04-30T12:31:53;2.80;;;2.53;;
4355;SDS011;64374;51.482;7.408;2023-04-30T12:34:25;5.30;;;3.37;;
4355;SDS011;64374;51.482;7.408;2023-04-30T12:36:56;3.60;;;3.30;;
4355;SDS011;64374;51.482;7.408;2023-04-30T12:39:31;4.00;;;3.07;;
4355;SDS011;64374;51.482;7.408;2023-04-30T12:42:00;3.83;;;2.77;;
4355;SDS011;64374;51.482;7.408;2023-04-30T12:44:30;5.20;;;2.33;;
4355;SDS011;64374;51.482;7.408;2023-04-30T12:46:58;6.90;;;3.30;;
4355;SDS011;64374;51.482;7.408;2023-04-30T12:49:33;4.03;;;2.97;;
4355;SDS011;64374;51.482;7.408;2023-04-30T12:52:07;4.87;;;2.70;;
4355;SDS011;64374;51.482;7.408;2023-04-30T12:54:42;6.17;;;2.87;;
4355;SDS011;64374;51.482;7.408;2023-04-30T12:57:11;2.77;;;2.53;;
4355;SDS011;64374;51.482;7.408;2023-04-30T12:59:55;5.40;;;3.30;;
4355;SDS011;64374;51.482;7.408;2023-04-30T13:02:25;4.87;;;3.00;;
4355;SDS011;64374;51.482;7.408;2023-04-30T13:04:55;2.77;;;2.43;;
4355;SDS011;64374;51.482;7.408;2023-04-30T13:07:33;3.13;;;2.70;;
4355;SDS011;64374;51.482;7.408;2023-04-30T13:10:07;2.80;;;2.60;;
4355;SDS011;64374;51.482;7.408;2023-04-30T13:12:44;3.30;;;2.87;;
4355;SDS011;64374;51.482;7.408;2023-04-30T13:15:12;4.33;;;3.20;;
4355;SDS011;64374;51.482;7.408;2023-04-30T13:17:45;2.77;;;2.50;;
4355;SDS011;64374;51.482;7.408;2023-04-30T13:20:20;2.83;;;2.60;;
4355;SDS011;64374;51.482;7.408;2023-04-30T13:22:52;2.77;;;2.07;;
4355;SDS011;64374;51.482;7.408;2023-04-30T13:25:24;2.90;;;2.47;;
4355;SDS011;64374;51.482;7.408;2023-04-30T13:27:55;1.83;;;1.70;;
4355;SDS011;64374;51.482;7.408;2023-04-30T13:30:27;2.40;;;1.67;;
4355;SDS011;64374;51.482;7.408;2023-04-30T13:32:55;3.53;;;1.90;;
4355;SDS011;64374;51.482;7.408;2023-04-30T13:35:28;2.97;;;2.17;;
4355;SDS011;64374;51.482;7.408;2023-04-30T13:38:00;1.90;;;1.80;;
4355;SDS011;64374;51.482;7.408;2023-04-30T13:40:29;3.77;;;1.90;;
4355;SDS011;64374;51.482;7.408;2023-04-30T13:42:57;2.70;;;1.80;;
4355;SDS011;64374;51.482;7.408;2023-04-30T13:45:25;4.00;;;2.03;;
4355;SDS011;64374;51.482;7.408;2023-04-30T13:47:56;1.53;;;1.43;;
4355;SDS011;64374;51.482;7.408;2023-04-30T13:50:25;2.20;;;2.00;;
4355;SDS011;64374;51.482;7.408;2023-04-30T13:52:53;2.80;;;1.57;;
4355;SDS011;64374;51.482;7.408;2023-04-30T13:55:23;2.60;;;2.00;;
4355;SDS011;64374;51.482;7.408;2023-04-30T13:57:52;1.80;;;1.70;;
4355;SDS011;64374;51.482;7.408;2023-04-30T14:00:21;1.47;;;1.37;;
4355;SDS011;64374;51.482;7.408;2023-04-30T14:02:49;1.63;;;1.43;;
4355;SDS011;64374;51.482;7.408;2023-04-30T14:05:25;3.20;;;1.27;;
4355;SDS011;64374;51.482;7.408;2023-04-30T14:07:53;3.30;;;2.40;;
4355;SDS011;64374;51.482;7.408;2023-04-30T14:10:30;2.83;;;1.43;;
4355;SDS011;64374;51.482;7.408;2023-04-30T14:13:02;1.80;;;1.60;;
4355;SDS011;64374;51.482;7.408;2023-04-30T14:15:33;1.63;;;1.53;;
4355;SDS011;64374;51.482;7.408;2023-04-30T14:18:06;1.60;;;1.50;;
4355;SDS011;64374;51.482;7.408;2023-04-30T14:20:38;4.10;;;1.50;;
4355;SDS011;64374;51.482;7.408;2023-04-30T14:23:07;1.57;;;1.23;;
4355;SDS011;64374;51.482;7.408;2023-04-30T14:25:42;1.93;;;1.27;;
4355;SDS011;64374;51.482;7.408;2023-04-30T14:28:11;2.53;;;1.50;;
4355;SDS011;64374;51.482;7.408;2023-04-30T14:30:41;5.37;;;1.40;;
4355;SDS011;64374;51.482;7.408;2023-04-30T14:33:10;1.60;;;1.30;;
4355;SDS011;64374;51.482;7.408;2023-04-30T14:35:42;2.47;;;1.07;;
4355;SDS011;64374;51.482;7.408;2023-04-30T14:38:11;1.83;;;1.03;;
4355;SDS011;64374;51.482;7.408;2023-04-30T14:40:55;8.83;;;1.00;;
4355;SDS011;64374;51.482;7.408;2023-04-30T14:43:23;1.10;;;1.10;;
4355;SDS011;64374;51.482;7.408;2023-04-30T14:45:53;2.10;;;1.60;;
4355;SDS011;64374;51.482;7.408;2023-04-30T14:48:22;3.07;;;1.73;;
4355;SDS011;64374;51.482;7.408;2023-04-30T14:50:51;5.20;;;1.57;;
4355;SDS011;64374;51.482;7.408;2023-04-30T14:53:19;3.37;;;1.53;;
4355;SDS011;64374;51.482;7.408;2023-04-30T14:55:47;5.10;;;1.53;;
4355;SDS011;64374;51.482;7.408;2023-04-30T14:58:18;1.83;;;1.40;;
4355;SDS011;64374;51.482;7.408;2023-04-30T15:00:48;2.17;;;1.20;;
4355;SDS011;64374;51.482;7.408;2023-04-30T15:03:17;6.00;;;1.30;;
4355;SDS011;64374;51.482;7.408;2023-04-30T15:05:48;1.60;;;1.30;;
4355;SDS011;64374;51.482;7.408;2023-04-30T15:08:17;3.73;;;1.40;;
4355;SDS011;64374;51.482;7.408;2023-04-30T15:10:48;4.40;;;1.60;;
4355;SDS011;64374;51.482;7.408;2023-04-30T15:13:17;1.60;;;0.93;;
4355;SDS011;64374;51.482;7.408;2023-04-30T15:15:46;0.83;;;0.83;;
4355;SDS011;64374;51.482;7.408;2023-04-30T15:18:17;1.83;;;1.00;;
4355;SDS011;64374;51.482;7.408;2023-04-30T15:20:48;2.70;;;1.63;;